Terminal Aerodrome Forecast
Issued by NWS

Home | Current Version | Previous Version | Text Only | Print | Product List | Glossary On
Versions: 1 2 3 4 5 6 7 8 9 10 11 12 13 14 15 16 17 18 19 20 21 22 23 24 25 26
912
FTUS43 KGRB 180330 AAB
TAFCWA
TAF AMD
KCWA 180330Z 1804/1824 27003KT 1SM BR SCT003
     FM180430 31003KT 1/2SM FG BKN003
     FM180800 26003KT 3SM BR OVC003
     FM181500 22008KT 5SM BR BKN008
     FM181800 22009KT P6SM SCT012=

USA.gov is the U.S. government's official web portal to all federal, state and local government web resources and services.